createdAt,value
2023-02-05T00:01:04.386Z,4.40
2023-02-05T00:03:38.698Z,4.30
2023-02-05T00:06:09.049Z,4.20
2023-02-05T00:08:37.024Z,4.20
2023-02-05T00:11:11.613Z,4.20
2023-02-05T00:13:42.219Z,4.30
2023-02-05T00:16:10.538Z,4.40
2023-02-05T00:21:23.692Z,4.20
2023-02-05T00:24:05.306Z,4.10
2023-02-05T00:26:33.312Z,4.10
2023-02-05T00:29:13.482Z,4.10
2023-02-05T00:31:41.012Z,4.10
2023-02-05T00:34:08.633Z,4.10
2023-02-05T00:36:37.174Z,4.10
2023-02-05T00:44:07.214Z,4.20
2023-02-05T00:46:39.705Z,4.30
2023-02-05T00:49:15.128Z,4.30
2023-02-05T00:51:42.621Z,4.40
2023-02-05T00:54:10.277Z,4.30
2023-02-05T00:56:38.218Z,4.30
2023-02-05T00:59:10.701Z,4.30
2023-02-05T01:06:42.388Z,4.40
2023-02-05T01:09:10.170Z,4.50
2023-02-05T01:11:37.885Z,4.60
2023-02-05T01:14:05.476Z,4.50
2023-02-05T01:16:47.196Z,4.50
2023-02-05T01:19:14.454Z,4.60
2023-02-05T01:21:43.580Z,4.70
2023-02-05T01:27:00.091Z,4.70
2023-02-05T01:29:31.309Z,4.70
2023-02-05T01:31:58.998Z,4.60
2023-02-05T01:34:26.591Z,4.60
2023-02-05T01:36:54.142Z,4.70
2023-02-05T01:39:27.121Z,4.60
2023-02-05T01:41:54.907Z,4.50
2023-02-05T01:44:24.962Z,4.50
2023-02-05T01:52:03.743Z,4.40
2023-02-05T01:54:34.381Z,4.40
2023-02-05T01:57:06.783Z,4.40
2023-02-05T01:59:38.803Z,4.40
2023-02-05T02:02:07.442Z,4.40
2023-02-05T02:04:39.301Z,4.40
2023-02-05T02:07:10.110Z,4.30
2023-02-05T02:14:47.767Z,4.20
2023-02-05T02:17:16.801Z,4.30
2023-02-05T02:19:51.462Z,4.30
2023-02-05T02:22:41.210Z,4.30
2023-02-05T02:25:43.913Z,4.20
2023-02-05T02:28:18.081Z,4.20
2023-02-05T02:30:52.906Z,4.20
2023-02-05T02:33:37.403Z,4.10
2023-02-05T02:36:10.630Z,4.20
2023-02-05T02:41:39.581Z,4.10
2023-02-05T02:44:17.221Z,4.10
2023-02-05T02:46:49.410Z,4.10
2023-02-05T02:49:21.528Z,4.10
2023-02-05T02:51:52.574Z,4.10
2023-02-05T02:54:23.585Z,4.10
2023-02-05T02:56:54.882Z,4.00
2023-02-05T02:59:24.777Z,4.00
2023-02-05T03:06:44.559Z,3.90
2023-02-05T03:09:44.794Z,3.90
2023-02-05T03:12:16.559Z,3.80
2023-02-05T03:14:44.719Z,3.90
2023-02-05T03:17:18.813Z,3.80
2023-02-05T03:19:54.963Z,3.80
2023-02-05T03:22:30.569Z,3.80
2023-02-05T03:25:17.423Z,3.80
2023-02-05T03:27:46.603Z,3.80
2023-02-05T03:35:29.624Z,3.70
2023-02-05T03:38:10.480Z,3.90
2023-02-05T03:40:43.943Z,3.80
2023-02-05T03:43:17.362Z,3.90
2023-02-05T03:45:50.973Z,4.00
2023-02-05T03:48:34.628Z,4.20
2023-02-05T03:51:15.441Z,4.30
2023-02-05T03:53:55.860Z,4.30
2023-02-05T04:01:17.936Z,4.50
2023-02-05T04:03:45.354Z,4.50
2023-02-05T04:06:13.531Z,4.70
2023-02-05T04:08:43.811Z,4.70
2023-02-05T04:11:11.422Z,4.80
2023-02-05T04:13:38.700Z,4.80
2023-02-05T04:16:06.590Z,4.80
2023-02-05T04:23:14.593Z,4.80
2023-02-05T04:25:43.072Z,4.90
2023-02-05T04:28:11.365Z,5.00
2023-02-05T04:30:39.951Z,5.00
2023-02-05T04:33:07.409Z,5.10
2023-02-05T04:35:35.381Z,5.20
2023-02-05T04:38:02.789Z,5.20
2023-02-05T04:45:36.892Z,5.10
2023-02-05T04:48:06.219Z,4.90
2023-02-05T04:50:33.613Z,4.90
2023-02-05T04:53:02.137Z,4.90
2023-02-05T04:55:29.865Z,4.90
2023-02-05T04:57:57.289Z,4.90
2023-02-05T05:00:25.318Z,4.80
2023-02-05T05:02:53.962Z,4.80
2023-02-05T05:09:38.426Z,4.70
2023-02-05T05:12:11.789Z,4.70
2023-02-05T05:14:39.684Z,4.90
2023-02-05T05:17:07.082Z,4.80
2023-02-05T05:19:34.987Z,5.00
2023-02-05T05:22:02.832Z,5.30
2023-02-05T05:24:30.287Z,5.50
2023-02-05T05:26:59.278Z,5.70
2023-02-05T05:32:08.908Z,5.30
2023-02-05T05:34:36.161Z,5.00
2023-02-05T05:37:03.541Z,4.50
2023-02-05T05:39:50.800Z,4.50
2023-02-05T05:42:36.298Z,4.40
2023-02-05T05:45:03.666Z,4.60
2023-02-05T05:47:34.678Z,4.50
2023-02-05T05:55:11.984Z,4.60
2023-02-05T05:57:39.645Z,4.50
2023-02-05T06:00:08.152Z,4.40
2023-02-05T06:03:41.340Z,3.80
2023-02-05T06:06:31.582Z,4.00
2023-02-05T06:09:40.384Z,4.20
2023-02-05T06:12:14.681Z,4.50
2023-02-05T06:18:27.771Z,5.10
2023-02-05T06:34:31.041Z,5.40
2023-02-05T06:37:14.848Z,5.20
2023-02-05T06:43:39.193Z,5.20
2023-02-05T06:57:59.117Z,4.80
2023-02-05T07:07:17.367Z,4.60
2023-02-05T07:09:45.247Z,4.50
2023-02-05T07:12:13.186Z,4.50
2023-02-05T07:14:41.291Z,4.40
2023-02-05T07:17:09.477Z,4.30
2023-02-05T07:19:37.344Z,4.30
2023-02-05T07:22:05.617Z,4.20
2023-02-05T07:29:41.190Z,4.40
2023-02-05T07:32:08.633Z,4.20
2023-02-05T07:34:59.668Z,4.20
2023-02-05T07:38:48.288Z,4.30
2023-02-05T07:41:17.492Z,4.30
2023-02-05T07:51:43.284Z,4.50
2023-02-05T07:54:50.044Z,4.50
2023-02-05T07:57:44.643Z,4.50
2023-02-05T08:00:13.163Z,4.60
2023-02-05T08:15:51.877Z,4.70
2023-02-05T08:18:21.883Z,4.80
2023-02-05T08:20:51.931Z,5.10
2023-02-05T08:23:19.341Z,5.50
2023-02-05T08:25:46.910Z,5.60
2023-02-05T08:28:15.240Z,5.40
2023-02-05T08:30:42.995Z,5.30
2023-02-05T08:36:00.277Z,4.80
2023-02-05T08:38:35.243Z,4.90
2023-02-05T08:41:11.876Z,5.00
2023-02-05T08:43:41.467Z,5.20
2023-02-05T08:46:33.837Z,5.20
2023-02-05T08:49:17.476Z,5.10
2023-02-05T08:51:47.953Z,5.20
2023-02-05T08:54:21.221Z,5.20
2023-02-05T08:56:54.800Z,5.50
2023-02-05T09:04:50.219Z,5.40
2023-02-05T09:07:22.684Z,5.50
2023-02-05T09:10:12.057Z,5.10
2023-02-05T09:12:45.766Z,4.50
2023-02-05T09:15:19.234Z,4.40
2023-02-05T09:18:08.217Z,4.10
2023-02-05T09:21:31.013Z,3.90
2023-02-05T09:24:04.436Z,3.70
2023-02-05T09:34:35.259Z,4.30
2023-02-05T09:37:03.077Z,4.50
2023-02-05T09:42:32.187Z,4.60
2023-02-05T09:45:14.089Z,4.60
2023-02-05T09:48:14.804Z,4.60
2023-02-05T09:50:45.551Z,4.80
2023-02-05T09:53:20.838Z,5.00
2023-02-05T09:55:48.807Z,4.90
2023-02-05T10:14:10.024Z,5.00
2023-02-05T10:17:03.837Z,4.90
2023-02-05T10:20:10.282Z,5.00
2023-02-05T10:22:49.572Z,5.00
2023-02-05T10:25:55.079Z,5.20
2023-02-05T10:29:23.582Z,5.60
2023-02-05T10:32:15.295Z,5.20
2023-02-05T10:42:27.116Z,5.90
2023-02-05T10:45:09.010Z,5.80
2023-02-05T10:48:14.068Z,5.50
2023-02-05T10:50:54.263Z,5.20
2023-02-05T10:53:45.207Z,5.40
2023-02-05T10:56:18.234Z,5.60
2023-02-05T10:58:55.186Z,5.50
2023-02-05T11:16:57.291Z,5.20
2023-02-05T11:19:52.506Z,5.40
2023-02-05T11:22:31.121Z,5.30
2023-02-05T11:25:16.022Z,5.00
2023-02-05T11:27:58.537Z,5.10
2023-02-05T11:40:37.905Z,5.60
2023-02-05T11:43:09.879Z,5.80
2023-02-05T11:45:41.774Z,5.60
2023-02-05T11:48:27.222Z,5.70
2023-02-05T11:50:55.271Z,5.30
2023-02-05T11:53:24.384Z,5.40
2023-02-05T11:55:59.813Z,5.10
2023-02-05T12:17:00.569Z,5.70
2023-02-05T12:19:34.220Z,4.80
2023-02-05T12:22:13.250Z,5.20
2023-02-05T12:24:52.342Z,4.90
2023-02-05T12:27:36.299Z,4.80
2023-02-05T12:30:29.652Z,5.00
2023-02-05T12:33:15.380Z,4.60
2023-02-05T12:41:11.781Z,4.50
2023-02-05T12:43:41.944Z,4.60
2023-02-05T12:46:37.504Z,4.70
2023-02-05T12:49:23.475Z,4.40
2023-02-05T12:52:04.401Z,4.50
2023-02-05T12:54:46.582Z,4.70
2023-02-05T13:02:50.532Z,4.40
2023-02-05T13:05:26.040Z,4.60
2023-02-05T13:08:00.438Z,4.50
2023-02-05T13:10:31.824Z,4.60
2023-02-05T13:13:07.254Z,4.40
2023-02-05T13:15:40.823Z,4.50
2023-02-05T13:18:16.867Z,4.40
2023-02-05T13:26:25.783Z,4.30
2023-02-05T13:28:59.129Z,4.00
2023-02-05T13:31:34.479Z,4.10
2023-02-05T13:34:09.506Z,4.40
2023-02-05T13:37:08.856Z,4.50
2023-02-05T13:40:21.467Z,4.50
2023-02-05T13:43:21.434Z,4.70
2023-02-05T13:51:42.662Z,4.30
2023-02-05T13:54:52.262Z,4.10
2023-02-05T13:58:06.576Z,3.90
2023-02-05T14:00:37.788Z,3.80
2023-02-05T14:03:12.125Z,3.70
2023-02-05T14:05:42.071Z,3.60
2023-02-05T14:11:06.344Z,3.60
2023-02-05T14:13:36.988Z,3.80
2023-02-05T14:16:35.048Z,3.60
2023-02-05T14:19:52.586Z,3.70
2023-02-05T14:23:07.492Z,3.80
2023-02-05T14:26:11.277Z,3.90
2023-02-05T14:44:28.493Z,3.80
2023-02-05T14:47:03.098Z,3.70
2023-02-05T14:49:42.220Z,3.60
2023-02-05T14:52:27.930Z,3.50
2023-02-05T14:55:01.925Z,3.60
2023-02-05T14:57:43.631Z,3.60
2023-02-05T15:08:57.921Z,3.60
2023-02-05T15:11:36.424Z,3.80
2023-02-05T15:14:32.730Z,3.80
2023-02-05T15:17:48.033Z,3.70
2023-02-05T15:20:34.674Z,3.80
2023-02-05T15:23:15.894Z,3.80
2023-02-05T15:28:44.537Z,3.90
2023-02-05T15:31:46.176Z,3.70
2023-02-05T15:35:21.939Z,3.80
2023-02-05T15:38:00.471Z,3.90
2023-02-05T15:40:33.399Z,4.00
2023-02-05T15:43:12.593Z,4.20
2023-02-05T15:45:47.877Z,4.30
2023-02-05T15:48:24.363Z,4.10
2023-02-05T15:55:54.621Z,4.20
2023-02-05T15:58:26.290Z,4.50
2023-02-05T16:00:57.012Z,4.30
2023-02-05T16:03:27.368Z,4.20
2023-02-05T16:05:55.061Z,4.20
2023-02-05T16:08:25.997Z,4.10
2023-02-05T16:11:01.572Z,3.90
2023-02-05T16:19:09.548Z,4.10
2023-02-05T16:21:46.620Z,4.10
2023-02-05T16:24:30.052Z,4.00
2023-02-05T16:27:09.000Z,3.80
2023-02-05T16:29:49.043Z,3.80
2023-02-05T16:32:25.243Z,3.60
2023-02-05T16:34:54.682Z,3.60
2023-02-05T16:42:42.761Z,3.80
2023-02-05T16:45:23.221Z,3.70
2023-02-05T16:48:24.323Z,3.50
2023-02-05T16:50:54.120Z,3.40
2023-02-05T16:53:26.543Z,3.40
2023-02-05T16:55:58.510Z,3.70
2023-02-05T16:58:38.481Z,3.70
2023-02-05T17:16:55.543Z,3.50
2023-02-05T17:19:31.517Z,3.30
2023-02-05T17:22:21.018Z,3.30
2023-02-05T17:25:02.202Z,3.20
2023-02-05T17:27:42.464Z,3.30
2023-02-05T17:30:18.447Z,3.40
2023-02-05T17:32:58.739Z,3.30
2023-02-05T17:42:32.975Z,3.40
2023-02-05T17:45:00.622Z,3.50
2023-02-05T17:47:30.024Z,3.50
2023-02-05T17:49:58.109Z,3.50
2023-02-05T17:52:26.700Z,3.40
2023-02-05T17:54:58.014Z,3.30
2023-02-05T17:57:26.507Z,3.30
2023-02-05T18:05:08.751Z,3.40
2023-02-05T18:07:40.509Z,3.50
2023-02-05T18:10:13.009Z,3.40
2023-02-05T18:12:42.030Z,3.50
2023-02-05T18:15:14.537Z,3.40
2023-02-05T18:17:43.655Z,3.40
2023-02-05T18:20:25.610Z,3.30
2023-02-05T18:29:43.843Z,3.40
2023-02-05T18:32:19.473Z,3.50
2023-02-05T18:34:50.096Z,3.50
2023-02-05T18:37:22.359Z,3.30
2023-02-05T18:40:01.667Z,3.30
2023-02-05T18:42:32.429Z,3.30
2023-02-05T18:45:01.465Z,3.10
2023-02-05T18:52:42.979Z,3.30
2023-02-05T18:55:12.678Z,3.30
2023-02-05T18:57:41.421Z,3.50
2023-02-05T19:00:16.353Z,3.50
2023-02-05T19:02:49.381Z,3.40
2023-02-05T19:05:19.081Z,3.40
2023-02-05T19:07:52.001Z,3.50
2023-02-05T19:13:07.772Z,3.50
2023-02-05T19:15:41.564Z,3.60
2023-02-05T19:18:17.383Z,3.40
2023-02-05T19:20:53.392Z,3.60
2023-02-05T19:23:25.516Z,3.60
2023-02-05T19:26:09.526Z,3.60
2023-02-05T19:28:54.221Z,3.60
2023-02-05T19:31:23.190Z,3.50
2023-02-05T19:58:26.232Z,3.70
2023-02-05T20:04:27.532Z,3.80
2023-02-05T20:07:01.997Z,3.70
2023-02-05T20:13:05.028Z,3.40
2023-02-05T20:16:11.795Z,3.60
2023-02-05T20:18:57.562Z,3.70
2023-02-05T20:38:12.370Z,3.70
2023-02-05T20:41:02.321Z,3.70
2023-02-05T20:43:40.231Z,3.50
2023-02-05T20:46:13.580Z,3.60
2023-02-05T20:48:54.972Z,3.70
2023-02-05T20:51:32.204Z,3.70
2023-02-05T20:54:15.906Z,3.70
2023-02-05T20:57:00.188Z,3.80
2023-02-05T20:59:32.776Z,3.90
2023-02-05T21:04:55.923Z,3.80
2023-02-05T21:07:30.665Z,3.90
2023-02-05T21:10:02.193Z,3.80
2023-02-05T21:12:32.863Z,3.70
2023-02-05T21:15:03.933Z,3.70
2023-02-05T21:17:32.615Z,3.70
2023-02-05T21:20:05.344Z,3.70
2023-02-05T21:25:23.012Z,3.90
2023-02-05T21:27:58.298Z,3.90
2023-02-05T21:30:29.473Z,4.00
2023-02-05T21:33:37.667Z,3.80
2023-02-05T21:36:31.537Z,3.60
2023-02-05T21:39:23.100Z,3.60
2023-02-05T21:45:28.608Z,3.70
2023-02-05T21:48:17.875Z,3.80
2023-02-05T21:50:58.502Z,3.70
2023-02-05T21:56:55.115Z,3.80
2023-02-05T21:59:23.968Z,3.80
2023-02-05T22:01:51.895Z,3.70
2023-02-05T22:04:20.612Z,3.70
2023-02-05T22:06:48.115Z,3.60
2023-02-05T22:09:16.987Z,3.70
2023-02-05T22:11:44.710Z,3.70
2023-02-05T22:26:17.819Z,4.40
2023-02-05T22:28:51.339Z,4.40
2023-02-05T22:31:21.878Z,4.60
2023-02-05T22:36:46.330Z,4.70
2023-02-05T22:39:18.362Z,4.30
2023-02-05T22:41:47.275Z,4.50
2023-02-05T22:49:22.539Z,4.40
2023-02-05T22:51:55.263Z,4.00
2023-02-05T22:54:22.896Z,4.10
2023-02-05T22:56:50.634Z,4.20
2023-02-05T22:59:18.088Z,4.20
2023-02-05T23:01:45.646Z,4.10
2023-02-05T23:07:15.008Z,4.20
2023-02-05T23:15:02.168Z,4.40
2023-02-05T23:17:40.593Z,4.20
2023-02-05T23:20:11.680Z,3.80
2023-02-05T23:22:39.200Z,4.00
2023-02-05T23:25:07.688Z,4.00
2023-02-05T23:27:36.540Z,3.80
2023-02-05T23:30:07.441Z,3.80
2023-02-05T23:48:19.488Z,3.80
2023-02-05T23:50:50.740Z,4.30
2023-02-05T23:53:20.499Z,4.20
2023-02-05T23:55:49.566Z,4.50
2023-02-05T23:58:18.207Z,4.40
